Time;durP1;ratioP1;P1;durP2;ratioP2;P2;SDS_P1;SDS_P2;PMS_P1;PMS_P2;Temp;Humidity;BMP_temperature;BMP_pressure;BME280_temperature;BME280_humidity;BME280_pressure;Samples;Min_cycle;Max_cycle;Signal;HPM_P1;HPM_P2
2022/11/14 00:00:24;;;;;;;37.88;27.77;;;7.30;99.90;;;;;;4986222;28;20049;-61
2022/11/14 00:02:50;;;;;;;39.50;28.27;;;7.60;99.90;;;;;;5003438;28;20280;-63
2022/11/14 00:05:15;;;;;;;34.15;23.85;;;7.40;99.90;;;;;;5003676;28;20073;-59
2022/11/14 00:07:41;;;;;;;40.13;28.65;;;7.30;99.90;;;;;;4985249;28;20046;-60
2022/11/14 00:10:07;;;;;;;42.17;29.55;;;7.20;99.90;;;;;;5003705;28;20041;-61
2022/11/14 00:12:33;;;;;;;40.35;29.33;;;7.30;99.90;;;;;;5003289;28;20104;-62
2022/11/14 00:14:58;;;;;;;40.50;29.92;;;7.40;99.90;;;;;;5003535;28;20045;-59
2022/11/14 00:17:24;;;;;;;41.20;30.38;;;7.20;99.90;;;;;;5000139;28;20045;-65
2022/11/14 00:19:51;;;;;;;37.47;28.65;;;7.10;99.90;;;;;;5003382;28;20058;-63
2022/11/14 00:22:16;;;;;;;38.92;29.92;;;7.20;99.90;;;;;;5003557;28;20100;-61
2022/11/14 00:24:42;;;;;;;42.95;32.15;;;7.30;99.90;;;;;;5002880;28;20120;-60
2022/11/14 00:27:08;;;;;;;41.92;30.63;;;7.10;99.90;;;;;;5002086;28;20452;-60
2022/11/14 00:29:33;;;;;;;44.33;32.08;;;7.10;99.90;;;;;;5001659;28;20409;-61
2022/11/14 00:31:59;;;;;;;44.67;33.10;;;7.30;99.90;;;;;;5003337;28;20405;-61
2022/11/14 00:34:25;;;;;;;46.47;34.72;;;7.30;99.90;;;;;;5002720;28;20346;-60
2022/11/14 00:36:50;;;;;;;47.00;33.20;;;7.20;99.90;;;;;;5003102;28;20046;-61
2022/11/14 00:39:16;;;;;;;50.67;36.92;;;7.10;99.90;;;;;;5004102;28;20493;-60
2022/11/14 00:41:42;;;;;;;46.17;35.85;;;7.40;99.90;;;;;;4985901;28;20262;-62
2022/11/14 00:44:07;;;;;;;50.65;35.70;;;7.10;99.90;;;;;;5002690;28;20045;-61
2022/11/14 00:46:34;;;;;;;53.72;37.38;;;7.00;99.90;;;;;;5003027;28;20034;-59
2022/11/14 00:49:00;;;;;;;50.42;37.10;;;7.30;99.90;;;;;;5002701;28;20129;-62
2022/11/14 00:51:26;;;;;;;48.97;36.70;;;7.10;99.90;;;;;;5003131;28;20129;-63
2022/11/14 00:53:51;;;;;;;50.83;38.90;;;7.10;99.90;;;;;;5002654;28;20049;-63
2022/11/14 00:56:17;;;;;;;54.63;38.05;;;7.60;99.90;;;;;;5003514;28;20048;-60
2022/11/14 00:58:43;;;;;;;53.75;39.13;;;7.10;99.90;;;;;;5003160;28;20088;-60
2022/11/14 01:01:08;;;;;;;52.58;40.90;;;7.50;99.90;;;;;;5003542;28;20046;-60
2022/11/14 01:03:34;;;;;;;52.63;39.42;;;7.00;99.90;;;;;;5001577;28;20744;-60
2022/11/14 01:06:05;;;;;;;57.25;41.83;;;6.80;99.90;;;;;;5002761;28;20085;-60
2022/11/14 01:08:31;;;;;;;53.28;40.22;;;6.80;99.90;;;;;;4985871;28;20052;-59
2022/11/14 01:10:57;;;;;;;55.28;39.83;;;6.90;99.90;;;;;;5002749;28;20464;-62
2022/11/14 01:13:23;;;;;;;52.80;39.08;;;7.00;99.90;;;;;;5003214;28;20607;-60
2022/11/14 01:15:50;;;;;;;55.85;40.08;;;6.80;99.90;;;;;;5003678;28;20096;-60
2022/11/14 01:18:19;;;;;;;53.80;36.08;;;7.00;99.90;;;;;;5002852;28;20585;-62
2022/11/14 01:20:46;;;;;;;53.15;38.60;;;6.90;99.90;;;;;;5002330;28;20044;-61
2022/11/14 01:23:14;;;;;;;55.25;39.20;;;7.00;99.90;;;;;;5003193;28;20050;-60
2022/11/14 01:25:41;;;;;;;53.38;39.15;;;6.90;99.90;;;;;;5002686;28;20338;-61
2022/11/14 01:28:11;;;;;;;51.47;38.70;;;6.90;99.90;;;;;;5002151;28;20050;-62
2022/11/14 01:30:37;;;;;;;49.33;37.10;;;6.90;99.90;;;;;;5002903;28;20075;-62
2022/11/14 01:33:03;;;;;;;53.67;37.17;;;7.00;99.90;;;;;;5002076;28;20030;-61
2022/11/14 01:35:30;;;;;;;58.03;39.28;;;7.00;99.90;;;;;;5002160;28;20042;-60
2022/11/14 01:37:56;;;;;;;51.30;38.45;;;7.00;99.90;;;;;;5001865;28;20046;-62
2022/11/14 01:40:22;;;;;;;52.42;37.72;;;7.00;99.90;;;;;;5002419;28;20713;-61
2022/11/14 01:43:17;;;;;;;50.75;37.50;;;6.90;99.90;;;;;;5002865;28;20072;-60
2022/11/14 01:45:52;;;;;;;49.45;36.67;;;6.90;99.90;;;;;;4984810;28;20058;-62
2022/11/14 01:48:32;;;;;;;49.67;36.83;;;7.00;99.90;;;;;;5001859;28;20541;-60
2022/11/14 01:51:17;;;;;;;49.65;36.40;;;7.00;99.90;;;;;;5002813;28;20048;-59
2022/11/14 01:53:46;;;;;;;51.55;36.40;;;6.90;99.90;;;;;;5002366;28;20045;-62
2022/11/14 01:56:15;;;;;;;53.78;36.30;;;6.90;99.90;;;;;;5002171;28;20132;-60
2022/11/14 01:58:45;;;;;;;51.75;37.03;;;6.80;99.90;;;;;;5001933;28;20064;-60
2022/11/14 02:01:11;;;;;;;50.97;36.90;;;7.00;99.90;;;;;;5002162;28;20037;-61
2022/11/14 02:03:39;;;;;;;52.22;37.05;;;7.00;99.90;;;;;;5000788;28;20048;-61
2022/11/14 02:06:07;;;;;;;49.58;35.85;;;7.60;99.90;;;;;;5002016;28;20042;-60
2022/11/14 02:08:34;;;;;;;53.53;37.95;;;6.80;99.90;;;;;;5001614;28;20049;-62
2022/11/14 02:10:59;;;;;;;51.75;35.75;;;6.90;99.90;;;;;;5001391;28;20046;-60
2022/11/14 02:13:25;;;;;;;48.95;35.00;;;7.00;99.90;;;;;;5002430;28;20903;-60
2022/11/14 02:15:51;;;;;;;52.13;36.63;;;6.80;99.90;;;;;;5002859;28;20037;-60
2022/11/14 02:18:17;;;;;;;51.70;36.75;;;6.90;99.90;;;;;;5001468;28;20123;-62
2022/11/14 02:20:42;;;;;;;49.72;35.88;;;7.00;99.90;;;;;;5001032;28;20757;-60
2022/11/14 02:23:11;;;;;;;55.67;37.97;;;7.00;99.90;;;;;;5002241;28;20088;-62
2022/11/14 02:25:37;;;;;;;52.45;36.88;;;7.10;99.90;;;;;;5001548;28;20041;-60
2022/11/14 02:28:06;;;;;;;51.78;36.55;;;6.90;99.90;;;;;;5001814;28;20120;-62
2022/11/14 02:30:32;;;;;;;51.67;36.90;;;6.80;99.90;;;;;;5001734;28;20443;-60
2022/11/14 02:32:57;;;;;;;50.40;36.38;;;6.90;99.90;;;;;;5001560;28;20052;-61
2022/11/14 02:35:23;;;;;;;47.60;35.13;;;7.00;99.90;;;;;;4984403;28;20413;-62
2022/11/14 02:37:49;;;;;;;47.22;34.83;;;7.00;99.90;;;;;;5001170;28;20527;-60
2022/11/14 02:40:15;;;;;;;48.40;35.85;;;6.90;99.90;;;;;;5002105;28;20038;-60
2022/11/14 02:42:40;;;;;;;50.90;36.72;;;7.00;99.90;;;;;;5001677;28;20046;-60
2022/11/14 02:45:07;;;;;;;48.30;36.08;;;7.10;99.90;;;;;;5002297;28;20425;-61
2022/11/14 02:47:33;;;;;;;50.72;34.97;;;6.90;99.90;;;;;;4999680;28;20046;-61
2022/11/14 02:49:58;;;;;;;49.15;35.33;;;7.20;99.90;;;;;;5002111;28;20073;-60
2022/11/14 02:52:24;;;;;;;51.05;35.05;;;7.10;99.90;;;;;;5001579;28;20049;-59
2022/11/14 02:54:50;;;;;;;49.63;36.92;;;7.00;99.90;;;;;;5006067;28;20092;-59
2022/11/14 02:57:15;;;;;;;47.55;35.55;;;7.00;99.90;;;;;;5005185;28;20042;-61
2022/11/14 02:59:41;;;;;;;49.90;37.15;;;6.90;99.90;;;;;;5005128;28;20547;-60
2022/11/14 03:02:06;;;;;;;49.83;35.33;;;7.00;99.90;;;;;;5004933;28;20054;-59
2022/11/14 03:04:32;;;;;;;47.42;35.55;;;7.00;99.90;;;;;;5005110;28;20030;-61
2022/11/14 03:06:58;;;;;;;50.72;36.90;;;7.10;99.90;;;;;;4986836;28;20133;-60
2022/11/14 03:09:23;;;;;;;48.33;35.55;;;7.00;99.90;;;;;;5005315;28;20144;-60
2022/11/14 03:11:49;;;;;;;49.22;36.72;;;7.10;99.90;;;;;;4987665;28;20045;-59
2022/11/14 03:14:14;;;;;;;50.45;37.28;;;7.20;99.90;;;;;;5004833;28;20046;-61
2022/11/14 03:16:40;;;;;;;50.95;38.05;;;7.00;99.90;;;;;;5005013;28;20381;-62
2022/11/14 03:19:06;;;;;;;49.72;36.72;;;7.20;99.90;;;;;;5004411;28;20061;-61
2022/11/14 03:21:31;;;;;;;45.47;36.28;;;7.10;99.90;;;;;;5004948;28;20473;-60
2022/11/14 03:23:57;;;;;;;51.92;38.10;;;7.10;99.90;;;;;;5004487;28;20125;-60
2022/11/14 03:26:23;;;;;;;50.45;37.63;;;7.10;99.90;;;;;;5004963;28;20096;-60
2022/11/14 03:28:48;;;;;;;49.80;37.38;;;7.10;99.90;;;;;;5005033;28;20054;-60
2022/11/14 03:31:14;;;;;;;46.03;37.30;;;7.10;99.90;;;;;;5004450;28;20507;-62
2022/11/14 03:33:40;;;;;;;51.83;37.65;;;7.10;99.90;;;;;;4985684;28;20108;-60
2022/11/14 03:36:06;;;;;;;50.75;36.95;;;7.20;99.90;;;;;;5004929;28;20041;-60
2022/11/14 03:38:33;;;;;;;48.92;36.42;;;7.20;99.90;;;;;;5004532;28;20612;-62
2022/11/14 03:40:59;;;;;;;49.55;38.35;;;7.00;99.90;;;;;;5004541;28;20038;-60
2022/11/14 03:43:28;;;;;;;49.97;37.22;;;6.90;99.90;;;;;;5004084;28;20049;-60
2022/11/14 03:45:57;;;;;;;49.50;37.15;;;7.00;99.90;;;;;;5004580;28;20050;-61
2022/11/14 03:48:23;;;;;;;51.53;38.60;;;7.00;99.90;;;;;;5003668;28;20092;-62
2022/11/14 03:50:48;;;;;;;54.05;40.22;;;6.90;99.90;;;;;;5003922;28;20153;-60
2022/11/14 03:53:14;;;;;;;55.47;41.92;;;6.90;99.90;;;;;;5004640;28;20050;-61
2022/11/14 03:55:42;;;;;;;56.42;41.13;;;6.90;99.90;;;;;;5003371;28;20330;-61
2022/11/14 03:58:08;;;;;;;56.42;41.53;;;7.00;99.90;;;;;;5003917;28;20037;-60
2022/11/14 04:00:34;;;;;;;58.22;42.38;;;7.00;99.90;;;;;;5003385;28;20038;-61
2022/11/14 04:02:59;;;;;;;52.40;40.60;;;6.90;99.90;;;;;;5003472;28;20046;-61
2022/11/14 04:05:25;;;;;;;55.45;41.75;;;7.00;99.90;;;;;;4985821;28;20052;-62
2022/11/14 04:07:51;;;;;;;60.20;43.58;;;6.90;99.90;;;;;;5003568;28;20551;-61
2022/11/14 04:10:17;;;;;;;59.10;44.60;;;6.80;99.90;;;;;;4986357;28;20134;-59
2022/11/14 04:12:50;;;;;;;53.25;37.92;;;7.00;99.90;;;;;;4986361;28;20121;-61
2022/11/14 04:15:16;;;;;;;51.70;40.22;;;7.10;99.90;;;;;;5003819;28;20041;-62
2022/11/14 04:17:43;;;;;;;54.25;40.72;;;7.00;99.90;;;;;;5002267;28;20794;-65
2022/11/14 04:20:09;;;;;;;53.85;39.90;;;6.90;99.90;;;;;;5003801;28;20092;-62
2022/11/14 04:22:35;;;;;;;51.92;39.78;;;6.80;99.90;;;;;;5003539;28;20050;-61
2022/11/14 04:25:00;;;;;;;51.80;39.22;;;6.80;99.90;;;;;;5003022;28;20100;-60
2022/11/14 04:27:26;;;;;;;52.03;39.05;;;6.70;99.90;;;;;;5003577;28;20128;-60
2022/11/14 04:29:52;;;;;;;54.03;39.20;;;6.90;99.90;;;;;;5003863;28;20084;-61
2022/11/14 04:32:17;;;;;;;51.58;37.60;;;6.80;99.90;;;;;;5003512;28;20042;-62
2022/11/14 04:34:43;;;;;;;46.97;35.85;;;6.80;99.90;;;;;;5002737;28;20802;-59
2022/11/14 04:37:09;;;;;;;51.60;38.25;;;6.70;99.90;;;;;;5003785;28;20041;-62
2022/11/14 04:39:35;;;;;;;47.92;35.72;;;6.80;99.90;;;;;;5003417;28;20496;-60
2022/11/14 04:42:00;;;;;;;48.20;36.13;;;6.70;99.90;;;;;;4986041;28;20073;-62
2022/11/14 04:44:26;;;;;;;48.03;37.80;;;6.70;99.90;;;;;;5002717;28;20045;-62
2022/11/14 04:46:52;;;;;;;47.55;35.83;;;6.80;99.90;;;;;;5003182;28;20042;-63
2022/11/14 04:49:17;;;;;;;51.13;36.53;;;6.70;99.90;;;;;;4986321;28;20084;-59
2022/11/14 04:51:43;;;;;;;50.58;37.50;;;6.80;99.90;;;;;;5003835;28;20131;-61
2022/11/14 04:54:08;;;;;;;52.90;38.47;;;6.80;99.90;;;;;;4985602;28;20156;-60
2022/11/14 04:56:35;;;;;;;51.90;37.63;;;6.70;99.90;;;;;;5003741;28;20045;-60
2022/11/14 04:59:00;;;;;;;47.60;35.42;;;6.70;99.90;;;;;;5003121;28;20181;-60
2022/11/14 05:01:26;;;;;;;48.95;35.05;;;6.80;99.90;;;;;;4995916;28;20119;-62
2022/11/14 05:03:52;;;;;;;51.33;35.70;;;6.70;99.90;;;;;;5002804;28;20060;-63
2022/11/14 05:06:17;;;;;;;47.58;33.10;;;6.60;99.90;;;;;;5003405;28;20057;-60
2022/11/14 05:08:44;;;;;;;48.53;35.97;;;6.60;99.90;;;;;;5003514;28;20052;-59
2022/11/14 05:11:14;;;;;;;50.60;36.35;;;7.20;99.90;;;;;;5003211;28;20077;-61
2022/11/14 05:13:39;;;;;;;47.05;34.33;;;6.60;99.90;;;;;;4985439;28;20065;-59
2022/11/14 05:16:05;;;;;;;50.03;36.53;;;7.00;99.90;;;;;;5002539;28;20049;-60
2022/11/14 05:18:31;;;;;;;50.08;36.38;;;6.70;99.90;;;;;;5002258;28;20057;-61
2022/11/14 05:20:58;;;;;;;46.75;34.97;;;6.50;99.90;;;;;;5002683;28;20137;-61
2022/11/14 05:23:24;;;;;;;52.58;37.05;;;6.60;99.90;;;;;;5003176;28;20233;-60
2022/11/14 05:26:03;;;;;;;49.38;35.55;;;6.40;99.90;;;;;;5003351;28;20049;-60
2022/11/14 05:28:30;;;;;;;50.40;36.78;;;6.50;99.90;;;;;;5002593;28;20108;-61
2022/11/14 05:31:06;;;;;;;48.13;32.53;;;6.50;99.90;;;;;;5003651;28;20045;-59
2022/11/14 05:33:32;;;;;;;51.90;35.72;;;6.40;99.90;;;;;;5001547;28;20081;-60
2022/11/14 05:36:05;;;;;;;50.05;36.60;;;6.30;99.90;;;;;;5001787;28;20041;-60
2022/11/14 05:38:31;;;;;;;50.38;37.22;;;6.40;99.90;;;;;;5002285;28;20428;-59
2022/11/14 05:40:56;;;;;;;54.00;36.28;;;6.30;99.90;;;;;;4985340;28;20057;-60
2022/11/14 05:43:22;;;;;;;52.88;37.35;;;6.40;99.90;;;;;;5001688;28;20103;-61
2022/11/14 05:45:47;;;;;;;48.65;29.58;;;6.50;99.90;;;;;;5002543;28;20081;-61
2022/11/14 05:48:14;;;;;;;51.35;36.25;;;6.40;99.90;;;;;;5000867;28;20046;-61
2022/11/14 05:50:39;;;;;;;53.67;36.03;;;6.30;99.90;;;;;;5001574;28;20046;-60
2022/11/14 05:53:05;;;;;;;56.53;35.60;;;6.40;99.90;;;;;;5001537;28;20072;-60
2022/11/14 05:55:31;;;;;;;53.30;36.22;;;6.40;99.90;;;;;;5002253;28;20077;-62
2022/11/14 05:57:59;;;;;;;55.83;37.03;;;6.20;99.90;;;;;;5002765;28;20092;-60
2022/11/14 06:00:26;;;;;;;52.00;37.20;;;6.30;99.90;;;;;;5002049;28;20046;-60
2022/11/14 06:02:55;;;;;;;59.45;37.78;;;6.30;99.90;;;;;;5001473;28;20464;-62
2022/11/14 06:05:21;;;;;;;54.60;36.30;;;6.30;99.90;;;;;;4962125;28;20048;-61
2022/11/14 06:07:53;;;;;;;56.55;39.42;;;6.40;99.90;;;;;;5001552;28;20042;-60
2022/11/14 06:10:18;;;;;;;59.88;41.92;;;6.20;99.90;;;;;;5001276;28;20121;-61
2022/11/14 06:12:44;;;;;;;58.13;38.35;;;6.30;99.90;;;;;;5001552;28;20079;-60
2022/11/14 06:15:10;;;;;;;57.75;38.22;;;6.30;99.90;;;;;;5001692;28;20049;-59
2022/11/14 06:17:35;;;;;;;58.33;40.25;;;6.20;99.90;;;;;;4999768;28;20058;-62
2022/11/14 06:20:01;;;;;;;57.95;38.90;;;6.40;99.90;;;;;;5001342;28;20037;-59
2022/11/14 06:22:27;;;;;;;59.08;38.97;;;6.30;99.90;;;;;;5001214;28;20099;-60
2022/11/14 06:24:52;;;;;;;61.20;41.05;;;6.20;99.90;;;;;;5001193;28;20497;-61
2022/11/14 06:27:18;;;;;;;60.92;38.95;;;6.40;99.90;;;;;;5003307;28;20091;-59
2022/11/14 06:29:43;;;;;;;59.78;40.47;;;6.70;99.90;;;;;;5004884;28;20475;-59
2022/11/14 06:32:09;;;;;;;61.70;40.67;;;6.30;99.90;;;;;;5005259;28;20045;-62
2022/11/14 06:34:35;;;;;;;61.65;40.28;;;6.30;99.90;;;;;;5005561;28;20050;-59
2022/11/14 06:37:00;;;;;;;62.78;42.45;;;6.20;99.90;;;;;;5005253;28;20473;-59
2022/11/14 06:39:26;;;;;;;61.53;38.45;;;6.10;99.90;;;;;;5005690;28;20041;-62
2022/11/14 06:41:52;;;;;;;57.97;39.90;;;6.30;99.90;;;;;;4988243;28;20046;-62
2022/11/14 06:44:17;;;;;;;60.22;41.28;;;6.10;99.90;;;;;;5005780;28;20138;-59
2022/11/14 06:46:43;;;;;;;59.03;39.67;;;6.20;99.90;;;;;;5003934;28;20074;-59
2022/11/14 06:49:08;;;;;;;58.10;37.40;;;6.20;99.90;;;;;;5005658;28;20050;-62
2022/11/14 06:51:34;;;;;;;56.47;38.80;;;6.20;99.90;;;;;;5005197;28;20034;-61
2022/11/14 06:54:00;;;;;;;58.13;39.05;;;6.10;99.90;;;;;;5004799;28;20042;-62
2022/11/14 06:56:25;;;;;;;60.67;40.05;;;6.20;99.90;;;;;;4987493;28;20068;-62
2022/11/14 06:58:51;;;;;;;55.22;38.05;;;6.30;99.90;;;;;;5005846;28;20045;-59
2022/11/14 07:01:19;;;;;;;60.58;40.53;;;6.30;99.90;;;;;;5004966;28;20176;-59
2022/11/14 07:03:46;;;;;;;57.25;38.53;;;6.80;99.90;;;;;;5003758;28;20050;-61
2022/11/14 07:06:18;;;;;;;56.25;37.40;;;6.10;99.90;;;;;;5004560;28;20053;-59
2022/11/14 07:08:43;;;;;;;56.08;38.58;;;6.10;99.90;;;;;;5004397;28;20042;-60
2022/11/14 07:11:21;;;;;;;57.35;39.22;;;6.20;99.90;;;;;;5004919;28;20052;-59
2022/11/14 07:13:59;;;;;;;57.25;37.40;;;6.00;99.90;;;;;;5005379;28;20062;-60
2022/11/14 07:16:36;;;;;;;60.80;39.55;;;6.20;99.90;;;;;;5004149;28;20068;-60
2022/11/14 07:19:07;;;;;;;62.05;38.70;;;6.40;99.90;;;;;;5005149;28;20608;-60
2022/11/14 07:21:34;;;;;;;56.83;37.38;;;6.00;99.90;;;;;;5005018;28;20567;-59
2022/11/14 07:23:59;;;;;;;55.00;38.42;;;6.20;99.90;;;;;;5005104;28;20159;-59
2022/11/14 07:26:25;;;;;;;59.58;38.40;;;6.20;99.90;;;;;;5003660;28;20132;-61
2022/11/14 07:28:51;;;;;;;61.72;40.03;;;6.20;99.90;;;;;;4987462;28;20050;-61
2022/11/14 07:31:18;;;;;;;60.17;40.33;;;6.30;99.90;;;;;;4986985;28;20048;-59
2022/11/14 07:33:44;;;;;;;58.25;40.58;;;6.30;99.90;;;;;;5004162;28;20042;-60
2022/11/14 07:36:12;;;;;;;63.05;40.45;;;6.20;99.90;;;;;;5004903;28;20057;-61
2022/11/14 07:38:38;;;;;;;59.13;38.30;;;6.30;99.90;;;;;;4985813;28;20263;-60
2022/11/14 07:41:09;;;;;;;60.75;39.17;;;6.20;99.90;;;;;;5004902;28;20041;-61
2022/11/14 07:43:35;;;;;;;60.92;41.38;;;6.20;99.90;;;;;;5004216;28;20104;-60
2022/11/14 07:46:06;;;;;;;59.55;41.80;;;6.60;99.90;;;;;;5004149;28;20622;-60
2022/11/14 07:48:32;;;;;;;61.80;39.67;;;6.10;99.90;;;;;;5004460;28;20408;-61
2022/11/14 07:50:59;;;;;;;59.20;36.30;;;6.10;99.90;;;;;;5003593;28;20430;-61
2022/11/14 07:53:25;;;;;;;60.47;40.88;;;6.30;99.90;;;;;;5004693;28;20121;-60
2022/11/14 07:55:51;;;;;;;61.92;39.33;;;6.10;99.90;;;;;;5005157;28;20209;-59
2022/11/14 07:58:16;;;;;;;59.55;39.95;;;6.10;99.90;;;;;;5004599;28;20525;-62
2022/11/14 08:00:42;;;;;;;56.85;38.70;;;6.30;99.90;;;;;;5003090;28;20115;-60
2022/11/14 08:03:08;;;;;;;58.63;38.90;;;6.20;99.90;;;;;;5003756;28;20040;-60
2022/11/14 08:05:35;;;;;;;55.80;38.38;;;6.60;99.90;;;;;;5003344;28;20649;-59
2022/11/14 08:08:00;;;;;;;55.72;39.20;;;6.20;99.90;;;;;;5003763;28;20077;-61
2022/11/14 08:10:26;;;;;;;58.35;39.92;;;6.30;99.90;;;;;;5003615;28;20088;-61
2022/11/14 08:13:03;;;;;;;58.00;39.53;;;6.20;99.90;;;;;;5004149;28;20107;-61
2022/11/14 08:15:30;;;;;;;57.58;39.15;;;6.30;99.90;;;;;;5003308;28;20045;-62
2022/11/14 08:17:59;;;;;;;56.95;39.83;;;6.80;99.90;;;;;;5002864;28;20425;-60
2022/11/14 08:20:26;;;;;;;55.60;38.72;;;6.50;99.90;;;;;;5003887;28;20177;-59
2022/11/14 08:22:53;;;;;;;53.80;38.83;;;6.40;99.90;;;;;;4986670;28;20042;-63
2022/11/14 08:25:18;;;;;;;55.75;39.47;;;6.50;99.90;;;;;;5003216;28;20042;-61
2022/11/14 08:27:44;;;;;;;53.20;38.88;;;6.40;99.90;;;;;;5003645;28;20034;-59
2022/11/14 08:30:10;;;;;;;55.72;39.53;;;6.50;99.90;;;;;;5004054;28;20428;-60
2022/11/14 08:32:36;;;;;;;58.08;39.67;;;6.30;99.90;;;;;;4985243;28;20054;-62
2022/11/14 08:35:02;;;;;;;55.50;39.30;;;7.00;99.90;;;;;;5002213;28;20041;-60
2022/11/14 08:37:27;;;;;;;54.47;40.22;;;6.50;99.90;;;;;;5002281;28;20048;-61
2022/11/14 08:39:53;;;;;;;50.85;37.15;;;6.40;99.90;;;;;;5003271;28;20045;-60
2022/11/14 08:42:19;;;;;;;50.70;37.47;;;6.40;99.90;;;;;;5004128;28;20056;-59
2022/11/14 08:44:44;;;;;;;50.45;36.08;;;6.60;99.90;;;;;;5002250;28;20118;-62
2022/11/14 08:47:10;;;;;;;50.83;37.17;;;6.60;99.90;;;;;;5001247;28;20057;-62
2022/11/14 08:49:36;;;;;;;50.95;36.42;;;6.60;99.90;;;;;;5002832;28;20046;-60
2022/11/14 08:52:01;;;;;;;50.13;36.90;;;6.60;99.90;;;;;;5002928;28;20045;-61
2022/11/14 08:54:28;;;;;;;54.65;39.10;;;6.50;99.90;;;;;;4985912;28;20049;-62
2022/11/14 08:56:53;;;;;;;47.50;36.92;;;6.70;99.90;;;;;;5003092;28;20049;-59
2022/11/14 08:59:19;;;;;;;51.78;37.03;;;6.90;99.90;;;;;;5003342;28;20042;-60
2022/11/14 09:01:45;;;;;;;47.83;36.42;;;6.50;99.90;;;;;;5001030;28;20034;-59
2022/11/14 09:04:10;;;;;;;50.30;36.10;;;6.60;99.90;;;;;;5003119;28;20397;-62
2022/11/14 09:06:36;;;;;;;52.40;38.08;;;6.70;99.90;;;;;;5002704;28;20065;-62
2022/11/14 09:09:02;;;;;;;49.05;37.03;;;6.70;99.90;;;;;;4985579;28;20041;-60
2022/11/14 09:11:27;;;;;;;52.67;39.40;;;6.80;99.90;;;;;;5002550;28;20208;-60
2022/11/14 09:13:53;;;;;;;52.25;38.60;;;6.70;99.90;;;;;;5003803;28;20042;-61
2022/11/14 09:16:19;;;;;;;50.55;38.40;;;6.80;99.90;;;;;;5002880;28;20046;-61
2022/11/14 09:18:44;;;;;;;48.80;35.30;;;6.80;99.90;;;;;;5003190;28;20050;-59
2022/11/14 09:21:11;;;;;;;50.38;36.78;;;6.90;99.90;;;;;;5002569;28;20053;-61
2022/11/14 09:23:37;;;;;;;47.45;36.22;;;6.80;99.90;;;;;;5002989;28;20696;-61
2022/11/14 09:26:07;;;;;;;50.05;37.40;;;6.80;99.90;;;;;;4985653;28;20056;-62
2022/11/14 09:28:33;;;;;;;48.22;35.90;;;6.80;99.90;;;;;;5001178;28;20501;-62
2022/11/14 09:31:04;;;;;;;50.13;36.85;;;6.80;99.90;;;;;;5001823;28;20124;-60
2022/11/14 09:33:29;;;;;;;47.78;37.40;;;6.80;99.90;;;;;;5002405;28;20503;-60
2022/11/14 09:36:00;;;;;;;48.75;36.13;;;7.10;99.90;;;;;;5002907;28;20046;-59
2022/11/14 09:38:26;;;;;;;48.45;36.00;;;6.80;99.90;;;;;;5001738;28;20050;-62
2022/11/14 09:41:19;;;;;;;47.28;36.17;;;6.80;99.90;;;;;;5002766;28;20096;-63
2022/11/14 09:43:54;;;;;;;45.97;35.03;;;7.20;99.90;;;;;;5001446;28;20133;-60
2022/11/14 09:46:24;;;;;;;48.30;35.42;;;7.50;99.90;;;;;;5001861;28;20038;-60
2022/11/14 09:48:51;;;;;;;47.63;34.92;;;8.00;99.90;;;;;;5002831;28;20062;-59
2022/11/14 09:51:24;;;;;;;45.42;34.25;;;8.20;99.90;;;;;;4984637;28;20057;-60
2022/11/14 09:54:16;;;;;;;43.55;33.15;;;8.10;99.90;;;;;;5002267;28;20057;-61
2022/11/14 09:56:42;;;;;;;42.45;32.80;;;8.00;99.90;;;;;;5002006;28;20103;-62
2022/11/14 09:59:10;;;;;;;45.85;34.20;;;7.80;99.90;;;;;;5002479;28;20485;-61
2022/11/14 10:01:41;;;;;;;41.97;32.45;;;7.90;99.90;;;;;;5001131;28;20033;-61
2022/11/14 10:04:15;;;;;;;41.08;31.92;;;7.90;99.90;;;;;;5000823;28;20041;-61
2022/11/14 10:07:04;;;;;;;46.08;33.88;;;7.80;99.90;;;;;;5002299;28;20133;-62
2022/11/14 10:09:51;;;;;;;45.42;32.78;;;7.60;99.90;;;;;;4990441;28;20082;-60
2022/11/14 10:12:23;;;;;;;43.88;33.03;;;7.50;99.90;;;;;;4985022;28;20096;-62
2022/11/14 10:14:56;;;;;;;42.20;33.03;;;7.50;99.90;;;;;;5001719;28;20042;-61
2022/11/14 10:17:22;;;;;;;43.70;32.38;;;7.60;99.90;;;;;;4983512;28;20054;-61
2022/11/14 10:20:08;;;;;;;42.75;33.00;;;7.70;99.90;;;;;;5002543;28;20069;-62
2022/11/14 10:23:05;;;;;;;42.88;32.13;;;7.80;99.90;;;;;;4984586;28;20229;-60
2022/11/14 10:25:49;;;;;;;41.58;31.40;;;7.90;99.90;;;;;;4983360;28;20050;-61
2022/11/14 10:28:38;;;;;;;39.08;30.83;;;8.20;99.90;;;;;;5001996;28;20038;-63
2022/11/14 10:31:24;;;;;;;38.55;30.65;;;8.90;99.90;;;;;;5001353;28;20054;-63
2022/11/14 10:34:21;;;;;;;39.90;29.63;;;9.50;99.90;;;;;;4984716;28;20049;-62
2022/11/14 10:37:13;;;;;;;39.00;29.67;;;10.10;99.90;;;;;;5002836;28;20370;-60
2022/11/14 10:39:53;;;;;;;34.83;27.88;;;10.00;99.90;;;;;;4976224;28;20424;-61
2022/11/14 10:42:38;;;;;;;43.92;28.55;;;10.40;99.90;;;;;;5002539;28;20401;-62
2022/11/14 10:45:21;;;;;;;34.30;26.80;;;10.50;99.90;;;;;;5002004;28;20045;-63
2022/11/14 10:48:00;;;;;;;34.92;26.90;;;11.50;99.90;;;;;;4981543;28;20502;-61
2022/11/14 10:50:37;;;;;;;35.20;26.83;;;10.70;99.90;;;;;;4981843;28;20124;-62
2022/11/14 10:53:13;;;;;;;35.63;27.70;;;11.00;99.90;;;;;;4982775;28;20050;-61
2022/11/14 10:55:38;;;;;;;36.10;27.63;;;11.20;99.90;;;;;;4982257;28;20118;-62
2022/11/14 10:58:13;;;;;;;36.03;27.70;;;11.70;99.90;;;;;;4982324;28;20574;-61
2022/11/14 11:00:39;;;;;;;;;;;10.80;99.90;;;;;;4964439;28;20042;-60
2022/11/14 11:03:04;;;;;;;35.60;27.42;;;10.30;99.90;;;;;;4981376;28;20486;-63
2022/11/14 11:05:30;;;;;;;36.58;28.10;;;10.10;99.90;;;;;;4995014;28;20042;-62
2022/11/14 11:13:33;;;;;;;37.70;28.35;;;10.10;99.90;;;;;;5002685;28;20042;-63
2022/11/14 11:16:02;;;;;;;33.83;26.35;;;10.10;99.90;;;;;;5004151;28;20041;-60
2022/11/14 11:18:33;;;;;;;34.78;26.98;;;10.90;99.90;;;;;;5004566;28;20240;-61
2022/11/14 11:21:02;;;;;;;33.63;25.75;;;11.10;99.90;;;;;;5004491;28;20038;-60
2022/11/14 11:23:27;;;;;;;32.28;25.50;;;11.30;99.90;;;;;;4985548;28;20073;-62
2022/11/14 11:26:22;;;;;;;31.42;23.92;;;11.20;99.90;;;;;;5005256;28;20073;-61
2022/11/14 11:29:10;;;;;;;34.15;24.95;;;11.00;99.90;;;;;;5001971;28;20053;-61
2022/11/14 11:31:59;;;;;;;34.42;25.75;;;10.90;99.90;;;;;;4991338;28;20181;-61
2022/11/14 11:34:33;;;;;;;32.75;25.05;;;10.70;99.90;;;;;;5004196;28;20044;-63
2022/11/14 11:37:16;;;;;;;33.78;25.95;;;10.50;99.90;;;;;;5004802;28;20484;-61
2022/11/14 11:39:49;;;;;;;34.47;26.98;;;11.10;99.90;;;;;;5003994;28;20459;-61
2022/11/14 11:42:32;;;;;;;30.88;24.23;;;11.10;99.90;;;;;;5003735;28;20056;-63
2022/11/14 11:45:01;;;;;;;31.77;25.80;;;11.40;99.90;;;;;;5004140;28;20701;-61
2022/11/14 11:47:29;;;;;;;30.83;24.67;;;11.70;99.90;;;;;;5002952;28;20092;-63
2022/11/14 11:49:56;;;;;;;31.88;24.38;;;11.60;99.90;;;;;;5004106;28;20132;-61
2022/11/14 11:52:42;;;;;;;31.20;23.95;;;11.00;99.90;;;;;;5003858;28;20038;-64
2022/11/14 11:55:08;;;;;;;32.95;25.92;;;11.10;99.90;;;;;;5004661;28;20104;-62
2022/11/14 11:57:41;;;;;;;32.20;23.67;;;11.30;99.90;;;;;;5004209;28;20050;-63
2022/11/14 12:00:15;;;;;;;32.92;26.25;;;11.20;99.90;;;;;;4986716;28;20049;-62
2022/11/14 12:02:44;;;;;;;30.17;24.40;;;11.50;99.90;;;;;;5003751;28;20054;-61
2022/11/14 12:05:36;;;;;;;30.75;24.83;;;11.50;99.90;;;;;;5002006;28;20065;-62
2022/11/14 12:08:12;;;;;;;32.35;24.65;;;11.60;99.90;;;;;;4947893;28;20090;-64
2022/11/14 12:10:40;;;;;;;34.10;26.25;;;11.30;99.90;;;;;;4983327;28;20062;-63
2022/11/14 12:13:43;;;;;;;31.17;25.70;;;11.00;99.90;;;;;;4984220;28;20035;-60
2022/11/14 12:16:15;;;;;;;31.10;25.00;;;11.20;99.90;;;;;;4965447;28;20085;-62
2022/11/14 12:18:50;;;;;;;31.25;25.00;;;11.50;99.90;;;;;;4984412;28;20506;-60
2022/11/14 12:21:18;;;;;;;29.50;22.30;;;11.20;99.90;;;;;;4983008;28;20485;-60
2022/11/14 12:24:05;;;;;;;30.00;23.60;;;11.20;99.90;;;;;;4983125;28;20121;-62
2022/11/14 12:26:52;;;;;;;29.45;24.00;;;11.00;99.90;;;;;;4965722;28;20490;-62
2022/11/14 12:29:40;;;;;;;31.70;24.55;;;11.40;99.90;;;;;;4983690;28;20452;-62
2022/11/14 12:32:12;;;;;;;28.38;24.10;;;11.30;99.90;;;;;;4983128;28;20141;-62
2022/11/14 12:34:42;;;;;;;29.98;24.00;;;11.30;99.90;;;;;;4984571;28;20125;-60
2022/11/14 12:37:22;;;;;;;32.45;24.77;;;11.30;99.90;;;;;;4984240;28;20098;-60
2022/11/14 12:40:06;;;;;;;31.17;25.58;;;11.10;99.90;;;;;;4984856;28;20044;-60
2022/11/14 12:42:32;;;;;;;30.08;22.13;;;11.10;99.90;;;;;;4983999;28;20092;-61
2022/11/14 12:44:57;;;;;;;29.58;22.25;;;11.10;99.90;;;;;;4983622;28;20043;-61
2022/11/14 12:47:27;;;;;;;30.77;23.67;;;10.90;99.90;;;;;;4983938;28;20065;-60
2022/11/14 12:49:52;;;;;;;31.85;23.35;;;10.90;99.90;;;;;;4966558;28;20830;-62